sensor_id;sensor_type;location;lat;lon;timestamp;P1;durP1;ratioP1;P2;durP2;ratioP2
12762;SDS011;6445;52.490;13.378;2022-12-18T00:00:44;69.03;;;20.85;;
12762;SDS011;6445;52.490;13.378;2022-12-18T00:03:12;60.10;;;22.33;;
12762;SDS011;6445;52.490;13.378;2022-12-18T00:05:37;69.47;;;23.13;;
12762;SDS011;6445;52.490;13.378;2022-12-18T00:08:10;59.28;;;21.40;;
12762;SDS011;6445;52.490;13.378;2022-12-18T00:10:35;56.00;;;20.45;;
12762;SDS011;6445;52.490;13.378;2022-12-18T00:13:00;65.78;;;22.42;;
12762;SDS011;6445;52.490;13.378;2022-12-18T00:15:26;58.05;;;21.55;;
12762;SDS011;6445;52.490;13.378;2022-12-18T00:17:51;61.17;;;22.10;;
12762;SDS011;6445;52.490;13.378;2022-12-18T00:20:16;60.42;;;21.73;;
12762;SDS011;6445;52.490;13.378;2022-12-18T00:22:46;59.75;;;22.00;;
12762;SDS011;6445;52.490;13.378;2022-12-18T00:25:11;55.58;;;21.38;;
12762;SDS011;6445;52.490;13.378;2022-12-18T00:27:37;54.92;;;21.65;;
12762;SDS011;6445;52.490;13.378;2022-12-18T00:30:02;60.70;;;21.80;;
12762;SDS011;6445;52.490;13.378;2022-12-18T00:32:27;54.25;;;20.42;;
12762;SDS011;6445;52.490;13.378;2022-12-18T00:34:53;54.25;;;21.85;;
12762;SDS011;6445;52.490;13.378;2022-12-18T00:37:18;61.22;;;22.83;;
12762;SDS011;6445;52.490;13.378;2022-12-18T00:39:43;55.53;;;22.40;;
12762;SDS011;6445;52.490;13.378;2022-12-18T00:42:09;53.92;;;21.17;;
12762;SDS011;6445;52.490;13.378;2022-12-18T00:44:54;48.67;;;19.92;;
12762;SDS011;6445;52.490;13.378;2022-12-18T00:47:19;54.53;;;20.17;;
12762;SDS011;6445;52.490;13.378;2022-12-18T00:49:44;50.70;;;20.92;;
12762;SDS011;6445;52.490;13.378;2022-12-18T00:52:09;60.53;;;20.80;;
12762;SDS011;6445;52.490;13.378;2022-12-18T00:54:34;50.67;;;20.98;;
12762;SDS011;6445;52.490;13.378;2022-12-18T00:57:00;46.35;;;19.15;;
12762;SDS011;6445;52.490;13.378;2022-12-18T00:59:25;55.88;;;21.20;;
12762;SDS011;6445;52.490;13.378;2022-12-18T01:01:50;50.42;;;20.42;;
12762;SDS011;6445;52.490;13.378;2022-12-18T01:04:16;51.08;;;20.85;;
12762;SDS011;6445;52.490;13.378;2022-12-18T01:06:41;55.20;;;21.13;;
12762;SDS011;6445;52.490;13.378;2022-12-18T01:09:06;56.67;;;21.02;;
12762;SDS011;6445;52.490;13.378;2022-12-18T01:11:31;49.92;;;20.90;;
12762;SDS011;6445;52.490;13.378;2022-12-18T01:13:59;50.90;;;19.98;;
12762;SDS011;6445;52.490;13.378;2022-12-18T01:16:25;57.63;;;20.15;;
12762;SDS011;6445;52.490;13.378;2022-12-18T01:18:51;59.15;;;21.15;;
12762;SDS011;6445;52.490;13.378;2022-12-18T01:21:17;52.13;;;19.88;;
12762;SDS011;6445;52.490;13.378;2022-12-18T01:23:46;57.33;;;21.50;;
12762;SDS011;6445;52.490;13.378;2022-12-18T01:26:12;53.35;;;20.67;;
12762;SDS011;6445;52.490;13.378;2022-12-18T01:28:39;58.22;;;20.63;;
12762;SDS011;6445;52.490;13.378;2022-12-18T01:31:18;58.63;;;19.17;;
12762;SDS011;6445;52.490;13.378;2022-12-18T01:33:49;54.35;;;20.35;;
12762;SDS011;6445;52.490;13.378;2022-12-18T01:36:26;64.88;;;21.30;;
12762;SDS011;6445;52.490;13.378;2022-12-18T01:38:53;52.22;;;20.25;;
12762;SDS011;6445;52.490;13.378;2022-12-18T01:41:23;48.78;;;19.80;;
12762;SDS011;6445;52.490;13.378;2022-12-18T01:43:51;51.75;;;19.42;;
12762;SDS011;6445;52.490;13.378;2022-12-18T01:46:20;55.67;;;21.40;;
12762;SDS011;6445;52.490;13.378;2022-12-18T01:48:52;50.33;;;20.05;;
12762;SDS011;6445;52.490;13.378;2022-12-18T01:51:26;50.90;;;19.67;;
12762;SDS011;6445;52.490;13.378;2022-12-18T01:53:53;62.53;;;23.15;;
12762;SDS011;6445;52.490;13.378;2022-12-18T01:56:19;54.72;;;21.33;;
12762;SDS011;6445;52.490;13.378;2022-12-18T01:58:59;54.08;;;20.75;;
12762;SDS011;6445;52.490;13.378;2022-12-18T02:01:30;58.38;;;19.85;;
12762;SDS011;6445;52.490;13.378;2022-12-18T02:03:56;57.30;;;21.38;;
12762;SDS011;6445;52.490;13.378;2022-12-18T02:06:39;62.65;;;22.95;;
12762;SDS011;6445;52.490;13.378;2022-12-18T02:09:07;58.78;;;21.40;;
12762;SDS011;6445;52.490;13.378;2022-12-18T02:14:37;63.20;;;21.02;;
12762;SDS011;6445;52.490;13.378;2022-12-18T02:20:03;46.33;;;19.25;;
12762;SDS011;6445;52.490;13.378;2022-12-18T02:23:07;59.95;;;21.90;;
12762;SDS011;6445;52.490;13.378;2022-12-18T02:25:38;58.13;;;22.23;;
12762;SDS011;6445;52.490;13.378;2022-12-18T02:28:18;64.63;;;22.40;;
12762;SDS011;6445;52.490;13.378;2022-12-18T02:30:47;58.80;;;21.45;;
12762;SDS011;6445;52.490;13.378;2022-12-18T02:33:15;53.88;;;20.98;;
12762;SDS011;6445;52.490;13.378;2022-12-18T02:35:42;58.45;;;20.77;;
12762;SDS011;6445;52.490;13.378;2022-12-18T02:38:10;62.28;;;22.60;;
12762;SDS011;6445;52.490;13.378;2022-12-18T02:40:38;66.90;;;22.70;;
12762;SDS011;6445;52.490;13.378;2022-12-18T02:43:13;55.15;;;21.67;;
12762;SDS011;6445;52.490;13.378;2022-12-18T02:45:46;63.95;;;23.77;;
12762;SDS011;6445;52.490;13.378;2022-12-18T02:48:14;60.20;;;23.55;;
12762;SDS011;6445;52.490;13.378;2022-12-18T02:50:44;68.32;;;23.92;;
12762;SDS011;6445;52.490;13.378;2022-12-18T02:53:23;62.55;;;23.50;;
12762;SDS011;6445;52.490;13.378;2022-12-18T02:58:52;60.88;;;23.05;;
12762;SDS011;6445;52.490;13.378;2022-12-18T03:02:01;63.00;;;23.27;;
12762;SDS011;6445;52.490;13.378;2022-12-18T03:04:37;69.78;;;24.67;;
12762;SDS011;6445;52.490;13.378;2022-12-18T03:07:09;63.13;;;23.80;;
12762;SDS011;6445;52.490;13.378;2022-12-18T03:09:41;67.20;;;22.40;;
12762;SDS011;6445;52.490;13.378;2022-12-18T03:12:15;61.28;;;21.80;;
12762;SDS011;6445;52.490;13.378;2022-12-18T03:14:53;62.55;;;20.67;;
12762;SDS011;6445;52.490;13.378;2022-12-18T03:17:25;64.80;;;21.35;;
12762;SDS011;6445;52.490;13.378;2022-12-18T03:19:52;67.25;;;22.70;;
12762;SDS011;6445;52.490;13.378;2022-12-18T03:22:22;52.20;;;21.25;;
12762;SDS011;6445;52.490;13.378;2022-12-18T03:24:51;61.42;;;23.50;;
12762;SDS011;6445;52.490;13.378;2022-12-18T03:27:19;60.85;;;21.95;;
12762;SDS011;6445;52.490;13.378;2022-12-18T03:29:47;61.28;;;22.23;;
12762;SDS011;6445;52.490;13.378;2022-12-18T03:32:23;64.43;;;22.27;;
12762;SDS011;6445;52.490;13.378;2022-12-18T03:34:53;70.97;;;27.08;;
12762;SDS011;6445;52.490;13.378;2022-12-18T03:37:22;76.65;;;26.67;;
12762;SDS011;6445;52.490;13.378;2022-12-18T03:39:47;76.85;;;26.70;;
12762;SDS011;6445;52.490;13.378;2022-12-18T03:44:47;81.25;;;27.45;;
12762;SDS011;6445;52.490;13.378;2022-12-18T03:50:10;73.85;;;25.55;;
12762;SDS011;6445;52.490;13.378;2022-12-18T03:55:45;77.80;;;26.40;;
12762;SDS011;6445;52.490;13.378;2022-12-18T03:58:13;76.88;;;25.40;;
12762;SDS011;6445;52.490;13.378;2022-12-18T04:00:43;69.93;;;25.48;;
12762;SDS011;6445;52.490;13.378;2022-12-18T04:03:09;88.72;;;27.42;;
12762;SDS011;6445;52.490;13.378;2022-12-18T04:05:36;85.82;;;27.88;;
12762;SDS011;6445;52.490;13.378;2022-12-18T04:08:02;90.30;;;28.27;;
12762;SDS011;6445;52.490;13.378;2022-12-18T04:10:28;85.28;;;27.98;;
12762;SDS011;6445;52.490;13.378;2022-12-18T04:12:57;82.95;;;28.73;;
12762;SDS011;6445;52.490;13.378;2022-12-18T04:15:23;99.60;;;29.02;;
12762;SDS011;6445;52.490;13.378;2022-12-18T04:17:49;80.30;;;26.15;;
12762;SDS011;6445;52.490;13.378;2022-12-18T04:20:15;86.53;;;27.95;;
12762;SDS011;6445;52.490;13.378;2022-12-18T04:22:41;81.32;;;26.85;;
12762;SDS011;6445;52.490;13.378;2022-12-18T04:25:06;81.78;;;27.05;;
12762;SDS011;6445;52.490;13.378;2022-12-18T04:27:32;78.30;;;26.38;;
12762;SDS011;6445;52.490;13.378;2022-12-18T04:29:57;82.68;;;26.27;;
12762;SDS011;6445;52.490;13.378;2022-12-18T04:32:22;77.25;;;25.88;;
12762;SDS011;6445;52.490;13.378;2022-12-18T04:34:47;79.20;;;25.63;;
12762;SDS011;6445;52.490;13.378;2022-12-18T04:37:13;65.43;;;22.88;;
12762;SDS011;6445;52.490;13.378;2022-12-18T04:39:38;78.88;;;24.50;;
12762;SDS011;6445;52.490;13.378;2022-12-18T04:42:04;79.95;;;26.40;;
12762;SDS011;6445;52.490;13.378;2022-12-18T04:44:29;76.85;;;26.48;;
12762;SDS011;6445;52.490;13.378;2022-12-18T04:46:54;70.63;;;23.73;;
12762;SDS011;6445;52.490;13.378;2022-12-18T04:49:20;80.55;;;25.98;;
12762;SDS011;6445;52.490;13.378;2022-12-18T04:51:45;70.40;;;24.95;;
12762;SDS011;6445;52.490;13.378;2022-12-18T04:54:11;73.68;;;25.00;;
12762;SDS011;6445;52.490;13.378;2022-12-18T04:56:36;71.82;;;24.65;;
12762;SDS011;6445;52.490;13.378;2022-12-18T04:59:01;68.47;;;24.55;;
12762;SDS011;6445;52.490;13.378;2022-12-18T05:01:26;67.60;;;23.70;;
12762;SDS011;6445;52.490;13.378;2022-12-18T05:03:52;67.47;;;23.40;;
12762;SDS011;6445;52.490;13.378;2022-12-18T05:06:17;66.47;;;23.58;;
12762;SDS011;6445;52.490;13.378;2022-12-18T05:08:43;71.40;;;23.08;;
12762;SDS011;6445;52.490;13.378;2022-12-18T05:11:09;66.60;;;22.75;;
12762;SDS011;6445;52.490;13.378;2022-12-18T05:13:40;63.55;;;21.88;;
12762;SDS011;6445;52.490;13.378;2022-12-18T05:16:06;63.95;;;21.27;;
12762;SDS011;6445;52.490;13.378;2022-12-18T05:18:32;59.35;;;21.73;;
12762;SDS011;6445;52.490;13.378;2022-12-18T05:20:57;60.63;;;21.55;;
12762;SDS011;6445;52.490;13.378;2022-12-18T05:23:23;62.25;;;21.38;;
12762;SDS011;6445;52.490;13.378;2022-12-18T05:25:52;60.05;;;22.02;;
12762;SDS011;6445;52.490;13.378;2022-12-18T05:28:20;63.17;;;21.67;;
12762;SDS011;6445;52.490;13.378;2022-12-18T05:30:49;62.30;;;22.15;;
12762;SDS011;6445;52.490;13.378;2022-12-18T05:33:16;65.35;;;21.08;;
12762;SDS011;6445;52.490;13.378;2022-12-18T05:35:42;60.97;;;22.13;;
12762;SDS011;6445;52.490;13.378;2022-12-18T05:38:07;67.35;;;22.48;;
12762;SDS011;6445;52.490;13.378;2022-12-18T05:40:33;71.45;;;23.63;;
12762;SDS011;6445;52.490;13.378;2022-12-18T05:42:58;64.72;;;23.25;;
12762;SDS011;6445;52.490;13.378;2022-12-18T05:45:23;60.72;;;22.58;;
12762;SDS011;6445;52.490;13.378;2022-12-18T05:47:48;69.28;;;23.77;;
12762;SDS011;6445;52.490;13.378;2022-12-18T05:50:13;71.68;;;23.40;;
12762;SDS011;6445;52.490;13.378;2022-12-18T05:52:39;75.97;;;24.65;;
12762;SDS011;6445;52.490;13.378;2022-12-18T05:55:04;73.10;;;24.10;;
12762;SDS011;6445;52.490;13.378;2022-12-18T05:57:29;73.88;;;24.75;;
12762;SDS011;6445;52.490;13.378;2022-12-18T05:59:55;76.50;;;24.05;;
12762;SDS011;6445;52.490;13.378;2022-12-18T06:02:20;71.88;;;25.35;;
12762;SDS011;6445;52.490;13.378;2022-12-18T06:04:45;75.63;;;24.58;;
12762;SDS011;6445;52.490;13.378;2022-12-18T06:07:11;66.90;;;24.23;;
12762;SDS011;6445;52.490;13.378;2022-12-18T06:09:36;71.75;;;24.10;;
12762;SDS011;6445;52.490;13.378;2022-12-18T06:12:01;76.82;;;25.38;;
12762;SDS011;6445;52.490;13.378;2022-12-18T06:14:27;64.25;;;24.65;;
12762;SDS011;6445;52.490;13.378;2022-12-18T06:16:52;65.95;;;23.35;;
12762;SDS011;6445;52.490;13.378;2022-12-18T06:19:17;69.07;;;24.55;;
12762;SDS011;6445;52.490;13.378;2022-12-18T06:21:43;70.72;;;24.63;;
12762;SDS011;6445;52.490;13.378;2022-12-18T06:24:08;79.50;;;25.50;;
12762;SDS011;6445;52.490;13.378;2022-12-18T06:26:33;64.22;;;23.73;;
12762;SDS011;6445;52.490;13.378;2022-12-18T06:28:59;72.55;;;24.42;;
12762;SDS011;6445;52.490;13.378;2022-12-18T06:31:24;77.15;;;25.02;;
12762;SDS011;6445;52.490;13.378;2022-12-18T06:33:50;78.05;;;24.67;;
12762;SDS011;6445;52.490;13.378;2022-12-18T06:36:16;72.82;;;25.77;;
12762;SDS011;6445;52.490;13.378;2022-12-18T06:38:42;67.05;;;25.40;;
12762;SDS011;6445;52.490;13.378;2022-12-18T06:41:09;77.30;;;25.13;;
12762;SDS011;6445;52.490;13.378;2022-12-18T06:43:35;68.32;;;24.90;;
12762;SDS011;6445;52.490;13.378;2022-12-18T06:46:01;63.67;;;23.23;;
12762;SDS011;6445;52.490;13.378;2022-12-18T06:48:27;78.65;;;25.33;;
12762;SDS011;6445;52.490;13.378;2022-12-18T06:50:53;65.28;;;23.33;;
12762;SDS011;6445;52.490;13.378;2022-12-18T06:53:18;62.67;;;23.30;;
12762;SDS011;6445;52.490;13.378;2022-12-18T06:55:43;62.70;;;22.55;;
12762;SDS011;6445;52.490;13.378;2022-12-18T06:58:09;66.88;;;23.52;;
12762;SDS011;6445;52.490;13.378;2022-12-18T07:00:34;65.13;;;22.33;;
12762;SDS011;6445;52.490;13.378;2022-12-18T07:03:00;66.93;;;23.70;;
12762;SDS011;6445;52.490;13.378;2022-12-18T07:05:25;65.47;;;23.15;;
12762;SDS011;6445;52.490;13.378;2022-12-18T07:07:50;64.95;;;22.42;;
12762;SDS011;6445;52.490;13.378;2022-12-18T07:10:16;66.80;;;22.58;;
12762;SDS011;6445;52.490;13.378;2022-12-18T07:12:41;65.93;;;21.90;;
12762;SDS011;6445;52.490;13.378;2022-12-18T07:15:06;61.65;;;21.83;;
12762;SDS011;6445;52.490;13.378;2022-12-18T07:17:32;64.15;;;22.80;;
12762;SDS011;6445;52.490;13.378;2022-12-18T07:19:57;67.07;;;23.42;;
12762;SDS011;6445;52.490;13.378;2022-12-18T07:22:23;66.25;;;23.42;;
12762;SDS011;6445;52.490;13.378;2022-12-18T07:24:50;66.47;;;23.00;;
12762;SDS011;6445;52.490;13.378;2022-12-18T07:27:15;65.72;;;23.02;;
12762;SDS011;6445;52.490;13.378;2022-12-18T07:29:40;70.78;;;23.10;;
12762;SDS011;6445;52.490;13.378;2022-12-18T07:32:05;66.57;;;22.35;;
12762;SDS011;6445;52.490;13.378;2022-12-18T07:34:31;66.90;;;23.33;;
12762;SDS011;6445;52.490;13.378;2022-12-18T07:36:57;67.60;;;22.52;;
12762;SDS011;6445;52.490;13.378;2022-12-18T07:39:22;69.53;;;23.48;;
12762;SDS011;6445;52.490;13.378;2022-12-18T07:41:47;73.78;;;24.83;;
12762;SDS011;6445;52.490;13.378;2022-12-18T07:44:33;62.67;;;24.50;;
12762;SDS011;6445;52.490;13.378;2022-12-18T07:46:58;72.00;;;24.90;;
12762;SDS011;6445;52.490;13.378;2022-12-18T07:49:23;67.18;;;23.65;;
12762;SDS011;6445;52.490;13.378;2022-12-18T07:51:49;77.15;;;25.75;;
12762;SDS011;6445;52.490;13.378;2022-12-18T07:54:14;63.65;;;23.33;;
12762;SDS011;6445;52.490;13.378;2022-12-18T07:56:39;71.72;;;24.58;;
12762;SDS011;6445;52.490;13.378;2022-12-18T07:59:05;68.82;;;24.27;;
12762;SDS011;6445;52.490;13.378;2022-12-18T08:01:30;80.88;;;25.33;;
12762;SDS011;6445;52.490;13.378;2022-12-18T08:03:56;71.90;;;23.95;;
12762;SDS011;6445;52.490;13.378;2022-12-18T08:06:22;79.18;;;24.33;;
12762;SDS011;6445;52.490;13.378;2022-12-18T08:08:47;66.05;;;22.90;;
12762;SDS011;6445;52.490;13.378;2022-12-18T08:11:12;73.03;;;23.25;;
12762;SDS011;6445;52.490;13.378;2022-12-18T08:13:37;67.65;;;24.35;;
12762;SDS011;6445;52.490;13.378;2022-12-18T08:16:04;69.72;;;23.50;;
12762;SDS011;6445;52.490;13.378;2022-12-18T08:18:35;74.60;;;24.92;;
12762;SDS011;6445;52.490;13.378;2022-12-18T08:21:08;75.30;;;24.67;;
12762;SDS011;6445;52.490;13.378;2022-12-18T08:23:35;68.18;;;23.95;;
12762;SDS011;6445;52.490;13.378;2022-12-18T08:26:00;61.58;;;23.80;;
12762;SDS011;6445;52.490;13.378;2022-12-18T08:28:25;66.57;;;24.08;;
12762;SDS011;6445;52.490;13.378;2022-12-18T08:30:51;71.72;;;23.50;;
12762;SDS011;6445;52.490;13.378;2022-12-18T08:33:17;69.22;;;22.92;;
12762;SDS011;6445;52.490;13.378;2022-12-18T08:35:42;59.75;;;22.63;;
12762;SDS011;6445;52.490;13.378;2022-12-18T08:38:07;66.90;;;23.95;;
12762;SDS011;6445;52.490;13.378;2022-12-18T08:40:32;61.00;;;22.50;;
12762;SDS011;6445;52.490;13.378;2022-12-18T08:42:58;62.25;;;23.63;;
12762;SDS011;6445;52.490;13.378;2022-12-18T08:45:41;67.60;;;23.42;;
12762;SDS011;6445;52.490;13.378;2022-12-18T08:48:07;62.58;;;22.33;;
12762;SDS011;6445;52.490;13.378;2022-12-18T08:50:32;55.63;;;21.17;;
12762;SDS011;6445;52.490;13.378;2022-12-18T08:52:57;54.03;;;21.95;;
12762;SDS011;6445;52.490;13.378;2022-12-18T08:55:23;57.67;;;21.60;;
12762;SDS011;6445;52.490;13.378;2022-12-18T08:57:48;54.28;;;21.05;;
12762;SDS011;6445;52.490;13.378;2022-12-18T09:00:14;57.88;;;22.40;;
12762;SDS011;6445;52.490;13.378;2022-12-18T09:02:40;60.50;;;21.38;;
12762;SDS011;6445;52.490;13.378;2022-12-18T09:05:05;61.25;;;22.02;;
12762;SDS011;6445;52.490;13.378;2022-12-18T09:07:31;56.00;;;20.85;;
12762;SDS011;6445;52.490;13.378;2022-12-18T09:09:56;58.38;;;21.45;;
12762;SDS011;6445;52.490;13.378;2022-12-18T09:12:21;56.40;;;20.92;;
12762;SDS011;6445;52.490;13.378;2022-12-18T09:14:46;51.63;;;20.58;;
12762;SDS011;6445;52.490;13.378;2022-12-18T09:17:12;53.95;;;20.42;;
12762;SDS011;6445;52.490;13.378;2022-12-18T09:19:37;55.08;;;20.95;;
12762;SDS011;6445;52.490;13.378;2022-12-18T09:22:02;54.97;;;20.85;;
12762;SDS011;6445;52.490;13.378;2022-12-18T09:24:27;49.90;;;20.30;;
12762;SDS011;6445;52.490;13.378;2022-12-18T09:26:53;49.45;;;19.70;;
12762;SDS011;6445;52.490;13.378;2022-12-18T09:29:20;57.17;;;21.85;;
12762;SDS011;6445;52.490;13.378;2022-12-18T09:31:45;53.72;;;20.75;;
12762;SDS011;6445;52.490;13.378;2022-12-18T09:34:11;53.05;;;20.83;;
12762;SDS011;6445;52.490;13.378;2022-12-18T09:36:37;56.25;;;21.88;;
12762;SDS011;6445;52.490;13.378;2022-12-18T09:39:02;56.92;;;22.05;;
12762;SDS011;6445;52.490;13.378;2022-12-18T09:41:41;55.22;;;19.92;;
12762;SDS011;6445;52.490;13.378;2022-12-18T09:47:10;51.53;;;21.08;;
12762;SDS011;6445;52.490;13.378;2022-12-18T09:49:43;48.53;;;20.08;;
12762;SDS011;6445;52.490;13.378;2022-12-18T09:52:19;57.00;;;20.05;;
12762;SDS011;6445;52.490;13.378;2022-12-18T09:54:51;60.03;;;20.02;;
12762;SDS011;6445;52.490;13.378;2022-12-18T09:57:23;60.75;;;20.33;;
12762;SDS011;6445;52.490;13.378;2022-12-18T09:59:52;55.42;;;20.63;;
12762;SDS011;6445;52.490;13.378;2022-12-18T10:02:22;55.08;;;19.58;;
12762;SDS011;6445;52.490;13.378;2022-12-18T10:04:53;62.55;;;19.58;;
12762;SDS011;6445;52.490;13.378;2022-12-18T10:07:38;55.03;;;20.73;;
12762;SDS011;6445;52.490;13.378;2022-12-18T10:13:21;57.95;;;22.02;;
12762;SDS011;6445;52.490;13.378;2022-12-18T10:15:57;56.42;;;20.45;;
12762;SDS011;6445;52.490;13.378;2022-12-18T10:18:47;67.05;;;22.75;;
12762;SDS011;6445;52.490;13.378;2022-12-18T10:21:15;65.40;;;22.33;;
12762;SDS011;6445;52.490;13.378;2022-12-18T10:26:29;64.38;;;23.05;;
12762;SDS011;6445;52.490;13.378;2022-12-18T10:28:56;65.82;;;24.13;;
12762;SDS011;6445;52.490;13.378;2022-12-18T10:31:23;57.65;;;22.60;;
12762;SDS011;6445;52.490;13.378;2022-12-18T10:33:49;63.97;;;22.25;;
12762;SDS011;6445;52.490;13.378;2022-12-18T10:36:14;62.13;;;22.80;;
12762;SDS011;6445;52.490;13.378;2022-12-18T10:38:40;56.47;;;21.52;;
12762;SDS011;6445;52.490;13.378;2022-12-18T10:43:52;54.05;;;21.95;;
12762;SDS011;6445;52.490;13.378;2022-12-18T10:46:36;68.18;;;24.08;;
12762;SDS011;6445;52.490;13.378;2022-12-18T10:49:02;51.65;;;21.17;;
12762;SDS011;6445;52.490;13.378;2022-12-18T10:51:31;58.65;;;21.73;;
12762;SDS011;6445;52.490;13.378;2022-12-18T10:54:05;54.38;;;21.63;;
12762;SDS011;6445;52.490;13.378;2022-12-18T10:56:40;53.58;;;20.85;;
12762;SDS011;6445;52.490;13.378;2022-12-18T10:59:06;59.58;;;22.25;;
12762;SDS011;6445;52.490;13.378;2022-12-18T11:01:46;53.72;;;21.13;;
12762;SDS011;6445;52.490;13.378;2022-12-18T11:04:21;56.83;;;22.70;;
12762;SDS011;6445;52.490;13.378;2022-12-18T11:07:01;61.42;;;22.75;;
12762;SDS011;6445;52.490;13.378;2022-12-18T11:09:32;62.92;;;22.92;;
12762;SDS011;6445;52.490;13.378;2022-12-18T11:12:00;56.10;;;21.60;;
12762;SDS011;6445;52.490;13.378;2022-12-18T11:14:28;58.97;;;23.10;;
12762;SDS011;6445;52.490;13.378;2022-12-18T11:16:57;59.15;;;22.60;;
12762;SDS011;6445;52.490;13.378;2022-12-18T11:27:41;60.17;;;21.58;;
12762;SDS011;6445;52.490;13.378;2022-12-18T11:32:45;61.95;;;23.27;;
12762;SDS011;6445;52.490;13.378;2022-12-18T11:37:46;51.53;;;21.40;;
12762;SDS011;6445;52.490;13.378;2022-12-18T11:40:16;66.90;;;23.90;;
12762;SDS011;6445;52.490;13.378;2022-12-18T11:45:25;53.38;;;20.60;;
12762;SDS011;6445;52.490;13.378;2022-12-18T11:48:08;44.90;;;18.30;;
12762;SDS011;6445;52.490;13.378;2022-12-18T11:50:54;49.60;;;19.52;;
12762;SDS011;6445;52.490;13.378;2022-12-18T11:53:22;46.50;;;19.52;;
12762;SDS011;6445;52.490;13.378;2022-12-18T11:55:51;44.33;;;18.42;;
12762;SDS011;6445;52.490;13.378;2022-12-18T12:01:28;47.28;;;19.90;;
12762;SDS011;6445;52.490;13.378;2022-12-18T12:03:59;49.03;;;20.80;;
12762;SDS011;6445;52.490;13.378;2022-12-18T12:06:43;49.17;;;19.48;;
12762;SDS011;6445;52.490;13.378;2022-12-18T12:09:31;47.53;;;20.23;;
12762;SDS011;6445;52.490;13.378;2022-12-18T12:12:16;45.25;;;18.80;;
12762;SDS011;6445;52.490;13.378;2022-12-18T12:15:21;51.72;;;19.58;;
12762;SDS011;6445;52.490;13.378;2022-12-18T12:17:55;48.78;;;18.77;;
12762;SDS011;6445;52.490;13.378;2022-12-18T12:23:40;47.03;;;19.25;;
12762;SDS011;6445;52.490;13.378;2022-12-18T12:26:20;45.60;;;18.95;;
12762;SDS011;6445;52.490;13.378;2022-12-18T12:35:13;50.63;;;19.98;;
12762;SDS011;6445;52.490;13.378;2022-12-18T12:37:53;46.00;;;19.65;;
12762;SDS011;6445;52.490;13.378;2022-12-18T12:40:31;46.38;;;19.65;;
12762;SDS011;6445;52.490;13.378;2022-12-18T12:43:02;44.78;;;19.30;;
12762;SDS011;6445;52.490;13.378;2022-12-18T12:45:50;44.78;;;18.95;;
12762;SDS011;6445;52.490;13.378;2022-12-18T12:51:17;51.78;;;21.40;;
12762;SDS011;6445;52.490;13.378;2022-12-18T12:53:46;45.10;;;19.55;;
12762;SDS011;6445;52.490;13.378;2022-12-18T12:56:14;42.83;;;19.60;;
12762;SDS011;6445;52.490;13.378;2022-12-18T12:58:44;48.88;;;19.63;;
12762;SDS011;6445;52.490;13.378;2022-12-18T13:01:43;52.00;;;20.02;;
12762;SDS011;6445;52.490;13.378;2022-12-18T13:04:32;48.97;;;20.17;;
12762;SDS011;6445;52.490;13.378;2022-12-18T13:07:06;48.88;;;19.13;;
12762;SDS011;6445;52.490;13.378;2022-12-18T13:12:51;47.75;;;19.90;;
12762;SDS011;6445;52.490;13.378;2022-12-18T13:15:24;45.47;;;19.73;;
12762;SDS011;6445;52.490;13.378;2022-12-18T13:20:36;49.00;;;21.50;;
12762;SDS011;6445;52.490;13.378;2022-12-18T13:23:29;48.88;;;20.02;;
12762;SDS011;6445;52.490;13.378;2022-12-18T13:25:58;48.70;;;21.92;;
12762;SDS011;6445;52.490;13.378;2022-12-18T13:30:59;50.35;;;22.27;;
12762;SDS011;6445;52.490;13.378;2022-12-18T13:36:00;42.58;;;22.60;;
12762;SDS011;6445;52.490;13.378;2022-12-18T13:38:34;50.40;;;20.38;;
12762;SDS011;6445;52.490;13.378;2022-12-18T13:48:48;45.28;;;20.17;;
12762;SDS011;6445;52.490;13.378;2022-12-18T13:51:17;44.45;;;20.58;;
12762;SDS011;6445;52.490;13.378;2022-12-18T13:53:46;49.72;;;22.25;;
12762;SDS011;6445;52.490;13.378;2022-12-18T13:56:21;49.33;;;21.63;;
12762;SDS011;6445;52.490;13.378;2022-12-18T13:59:11;47.90;;;23.00;;
12762;SDS011;6445;52.490;13.378;2022-12-18T14:01:50;55.95;;;23.58;;
12762;SDS011;6445;52.490;13.378;2022-12-18T14:04:19;53.20;;;23.60;;
12762;SDS011;6445;52.490;13.378;2022-12-18T14:06:58;52.03;;;24.52;;
12762;SDS011;6445;52.490;13.378;2022-12-18T14:09:31;47.80;;;23.92;;
12762;SDS011;6445;52.490;13.378;2022-12-18T14:12:01;52.35;;;24.00;;
12762;SDS011;6445;52.490;13.378;2022-12-18T14:14:46;55.00;;;23.55;;
12762;SDS011;6445;52.490;13.378;2022-12-18T14:17:13;54.88;;;25.90;;
12762;SDS011;6445;52.490;13.378;2022-12-18T14:19:43;56.92;;;26.20;;
12762;SDS011;6445;52.490;13.378;2022-12-18T14:22:14;58.70;;;25.73;;
12762;SDS011;6445;52.490;13.378;2022-12-18T14:27:37;62.30;;;26.13;;
12762;SDS011;6445;52.490;13.378;2022-12-18T14:30:24;57.00;;;26.08;;
12762;SDS011;6445;52.490;13.378;2022-12-18T14:33:01;61.80;;;27.00;;
12762;SDS011;6445;52.490;13.378;2022-12-18T14:35:33;56.38;;;24.40;;
12762;SDS011;6445;52.490;13.378;2022-12-18T14:40:41;53.45;;;24.45;;
12762;SDS011;6445;52.490;13.378;2022-12-18T14:43:09;54.75;;;24.90;;
12762;SDS011;6445;52.490;13.378;2022-12-18T14:45:36;54.05;;;24.85;;
12762;SDS011;6445;52.490;13.378;2022-12-18T14:48:12;51.33;;;24.90;;
12762;SDS011;6445;52.490;13.378;2022-12-18T14:50:40;46.22;;;22.60;;
12762;SDS011;6445;52.490;13.378;2022-12-18T14:53:06;49.13;;;24.35;;
12762;SDS011;6445;52.490;13.378;2022-12-18T14:55:49;49.97;;;21.80;;
12762;SDS011;6445;52.490;13.378;2022-12-18T14:58:15;47.72;;;22.42;;
12762;SDS011;6445;52.490;13.378;2022-12-18T15:00:42;40.95;;;20.10;;
12762;SDS011;6445;52.490;13.378;2022-12-18T15:03:07;39.10;;;20.13;;
12762;SDS011;6445;52.490;13.378;2022-12-18T15:05:34;44.92;;;21.38;;
12762;SDS011;6445;52.490;13.378;2022-12-18T15:08:00;47.53;;;22.70;;
12762;SDS011;6445;52.490;13.378;2022-12-18T15:10:26;46.17;;;22.15;;
12762;SDS011;6445;52.490;13.378;2022-12-18T15:15:43;37.20;;;19.40;;
12762;SDS011;6445;52.490;13.378;2022-12-18T15:20:51;40.92;;;19.83;;
12762;SDS011;6445;52.490;13.378;2022-12-18T15:23:54;37.42;;;19.05;;
12762;SDS011;6445;52.490;13.378;2022-12-18T15:26:20;37.47;;;19.00;;
12762;SDS011;6445;52.490;13.378;2022-12-18T15:28:47;44.03;;;20.30;;
12762;SDS011;6445;52.490;13.378;2022-12-18T15:33:44;43.90;;;20.60;;
12762;SDS011;6445;52.490;13.378;2022-12-18T15:36:24;40.88;;;19.98;;
12762;SDS011;6445;52.490;13.378;2022-12-18T15:38:50;35.45;;;18.55;;
12762;SDS011;6445;52.490;13.378;2022-12-18T15:41:19;38.70;;;20.10;;
12762;SDS011;6445;52.490;13.378;2022-12-18T15:43:46;39.63;;;20.40;;
12762;SDS011;6445;52.490;13.378;2022-12-18T15:46:14;35.78;;;19.33;;
12762;SDS011;6445;52.490;13.378;2022-12-18T15:48:42;41.10;;;20.70;;
12762;SDS011;6445;52.490;13.378;2022-12-18T15:51:20;38.80;;;19.08;;
12762;SDS011;6445;52.490;13.378;2022-12-18T15:53:49;40.40;;;18.88;;
12762;SDS011;6445;52.490;13.378;2022-12-18T15:56:17;33.38;;;16.92;;
12762;SDS011;6445;52.490;13.378;2022-12-18T15:59:01;33.88;;;17.88;;
12762;SDS011;6445;52.490;13.378;2022-12-18T16:01:29;33.05;;;16.70;;
12762;SDS011;6445;52.490;13.378;2022-12-18T16:03:56;34.03;;;16.65;;
12762;SDS011;6445;52.490;13.378;2022-12-18T16:06:21;35.20;;;16.95;;